Time;durP1;ratioP1;P1;durP2;ratioP2;P2;SDS_P1;SDS_P2;PMS_P1;PMS_P2;Temp;Humidity;BMP_temperature;BMP_pressure;BME280_temperature;BME280_humidity;BME280_pressure;Samples;Min_cycle;Max_cycle;Signal;HPM_P1;HPM_P2
2022/06/11 00:01:21;;;;;;;4.28;2.55;;;;;;;;;;5141992;27;20038;-46
2022/06/11 00:03:49;;;;;;;3.47;1.60;;;;;;;;;;5138669;27;20043;-48
2022/06/11 00:06:14;;;;;;;6.50;2.35;;;;;;;;;;5140890;27;20505;-49
2022/06/11 00:08:40;;;;;;;9.75;2.70;;;;;;;;;;5141573;27;20042;-47
2022/06/11 00:11:07;;;;;;;5.30;2.30;;;;;;;;;;5138394;27;20046;-46
2022/06/11 00:13:32;;;;;;;2.75;2.13;;;;;;;;;;5142451;27;20070;-43
2022/06/11 00:15:58;;;;;;;5.18;3.50;;;;;;;;;;5136969;27;20062;-41
2022/06/11 00:18:24;;;;;;;3.92;2.13;;;;;;;;;;5139964;27;20125;-44
2022/06/11 00:20:49;;;;;;;4.93;1.67;;;;;;;;;;5143288;27;20046;-44
2022/06/11 00:23:15;;;;;;;1.85;1.10;;;;;;;;;;5140018;27;20046;-44
2022/06/11 00:25:40;;;;;;;99.47;16.67;;;;;;;;;;5140031;27;20047;-43
2022/06/11 00:28:07;;;;;;;4.30;1.75;;;;;;;;;;5141149;27;20057;-43
2022/06/11 00:30:32;;;;;;;4.32;1.90;;;;;;;;;;5140263;27;20505;-44
2022/06/11 00:32:58;;;;;;;6.45;1.88;;;;;;;;;;5141307;27;20047;-42
2022/06/11 00:35:25;;;;;;;2.92;1.55;;;;;;;;;;5140556;27;20058;-45
2022/06/11 00:37:50;;;;;;;2.83;1.50;;;;;;;;;;5141174;27;20078;-44
2022/06/11 00:40:17;;;;;;;6.50;2.60;;;;;;;;;;5138754;27;20077;-44
2022/06/11 00:42:42;;;;;;;3.88;2.00;;;;;;;;;;5138361;27;20039;-43
2022/06/11 00:45:12;;;;;;;4.32;1.75;;;;;;;;;;5138169;27;20045;-43
2022/06/11 00:47:38;;;;;;;7.55;1.67;;;;;;;;;;5140158;27;20082;-45
2022/06/11 00:50:15;;;;;;;3.10;1.85;;;;;;;;;;5139944;27;20039;-46
2022/06/11 00:52:43;;;;;;;2.55;1.40;;;;;;;;;;5140218;27;20492;-42
2022/06/11 00:55:10;;;;;;;3.35;1.40;;;;;;;;;;5139041;27;20031;-42
2022/06/11 00:57:48;;;;;;;6.05;1.23;;;;;;;;;;5138127;27;20058;-42
2022/06/11 01:00:16;;;;;;;6.72;2.55;;;;;;;;;;5139415;27;20096;-42
2022/06/11 01:02:42;;;;;;;12.20;1.67;;;;;;;;;;5135717;27;20537;-42
2022/06/11 01:05:12;;;;;;;3.45;1.25;;;;;;;;;;5140354;27;20042;-43
2022/06/11 01:07:56;;;;;;;6.28;2.85;;;;;;;;;;5137858;27;20552;-45
2022/06/11 01:10:25;;;;;;;4.95;1.60;;;;;;;;;;5140535;27;20050;-42
2022/06/11 01:13:04;;;;;;;4.97;1.58;;;;;;;;;;5134806;27;20441;-41
2022/06/11 01:15:30;;;;;;;5.15;1.48;;;;;;;;;;5141921;27;20087;-42
2022/06/11 01:18:14;;;;;;;6.68;1.83;;;;;;;;;;5137276;27;20051;-46
2022/06/11 01:20:45;;;;;;;4.93;1.83;;;;;;;;;;5138843;27;20038;-43
2022/06/11 01:23:13;;;;;;;3.85;2.45;;;;;;;;;;5136307;27;20603;-46
2022/06/11 01:25:57;;;;;;;9.50;1.83;;;;;;;;;;5139625;27;20072;-43
2022/06/11 01:28:26;;;;;;;2.55;1.98;;;;;;;;;;5134622;27;20043;-44
2022/06/11 01:30:58;;;;;;;4.70;1.83;;;;;;;;;;5139825;27;20039;-43
2022/06/11 01:33:36;;;;;;;14.40;2.90;;;;;;;;;;5140451;27;20649;-43
2022/06/11 01:36:05;;;;;;;22.38;3.30;;;;;;;;;;5138398;27;20443;-43
2022/06/11 01:38:38;;;;;;;7.10;1.52;;;;;;;;;;5139599;27;20051;-43
2022/06/11 01:41:22;;;;;;;4.03;2.42;;;;;;;;;;5139366;27;20350;-46
2022/06/11 01:43:48;;;;;;;6.95;3.22;;;;;;;;;;5142246;27;20043;-43
2022/06/11 01:46:19;;;;;;;8.52;2.83;;;;;;;;;;5143075;27;20137;-44
2022/06/11 01:48:50;;;;;;;9.57;2.20;;;;;;;;;;5138563;27;20231;-43
2022/06/11 01:51:23;;;;;;;3.10;1.65;;;;;;;;;;5136294;27;20107;-41
2022/06/11 01:53:52;;;;;;;3.70;1.55;;;;;;;;;;5143128;27;20070;-42
2022/06/11 01:56:20;;;;;;;4.05;1.98;;;;;;;;;;5141436;27;20047;-44
2022/06/11 01:59:09;;;;;;;6.13;2.47;;;;;;;;;;5143804;27;20039;-42
2022/06/11 02:01:53;;;;;;;30.90;6.38;;;;;;;;;;5131475;27;20026;-42
2022/06/11 02:04:26;;;;;;;11.10;3.08;;;;;;;;;;5142692;27;20039;-44
2022/06/11 02:07:03;;;;;;;2.78;1.95;;;;;;;;;;5139168;27;20030;-42
2022/06/11 02:09:49;;;;;;;3.20;1.60;;;;;;;;;;5142293;27;20061;-41
2022/06/11 02:12:18;;;;;;;13.15;2.28;;;;;;;;;;5141610;27;20047;-41
2022/06/11 02:14:55;;;;;;;3.40;1.70;;;;;;;;;;5143864;27;20495;-42
2022/06/11 02:17:23;;;;;;;2.78;1.10;;;;;;;;;;5141932;27;20078;-41
2022/06/11 02:19:52;;;;;;;2.63;1.20;;;;;;;;;;5140232;27;20740;-46
2022/06/11 02:22:26;;;;;;;3.55;1.75;;;;;;;;;;5141823;27;20074;-44
2022/06/11 02:24:53;;;;;;;12.48;2.65;;;;;;;;;;5142557;27;20042;-42
2022/06/11 02:27:22;;;;;;;47.47;10.07;;;;;;;;;;5142646;27;20081;-41
2022/06/11 02:29:47;;;;;;;4.00;2.40;;;;;;;;;;5140080;27;20188;-42
2022/06/11 02:32:15;;;;;;;5.38;1.70;;;;;;;;;;5141418;27;20141;-42
2022/06/11 02:34:43;;;;;;;4.22;1.73;;;;;;;;;;5142799;27;20042;-48
2022/06/11 02:37:15;;;;;;;4.45;2.15;;;;;;;;;;5145252;27;20043;-43
2022/06/11 02:39:41;;;;;;;6.70;2.40;;;;;;;;;;5140006;27;20104;-42
2022/06/11 02:42:08;;;;;;;100.03;16.50;;;;;;;;;;5141822;27;20086;-44
2022/06/11 02:44:33;;;;;;;27.50;4.05;;;;;;;;;;5141376;27;20049;-44
2022/06/11 02:46:59;;;;;;;382.50;74.88;;;;;;;;;;5139957;27;20094;-42
2022/06/11 02:49:30;;;;;;;39.78;5.85;;;;;;;;;;5143811;27;20038;-43
2022/06/11 02:51:57;;;;;;;7.55;2.22;;;;;;;;;;5141061;27;20358;-49
2022/06/11 02:54:25;;;;;;;223.45;51.55;;;;;;;;;;5139498;27;20123;-44
2022/06/11 02:56:51;;;;;;;242.93;37.95;;;;;;;;;;5135958;27;20071;-44
2022/06/11 02:59:16;;;;;;;36.90;6.22;;;;;;;;;;5144448;27;20043;-46
2022/06/11 03:01:42;;;;;;;24.15;3.05;;;;;;;;;;5141106;27;20047;-44
2022/06/11 03:04:08;;;;;;;9.63;1.77;;;;;;;;;;5137501;27;20514;-46
2022/06/11 03:06:33;;;;;;;35.75;8.30;;;;;;;;;;5137935;27;20073;-47
2022/06/11 03:08:59;;;;;;;53.33;9.52;;;;;;;;;;5142862;27;20044;-45
2022/06/11 03:11:25;;;;;;;52.67;10.60;;;;;;;;;;5143317;27;20114;-41
2022/06/11 03:13:50;;;;;;;2.42;1.77;;;;;;;;;;5141847;27;20034;-41
2022/06/11 03:16:16;;;;;;;3.97;1.42;;;;;;;;;;5141354;27;20497;-43
2022/06/11 03:18:41;;;;;;;4.30;2.22;;;;;;;;;;5138406;27;20047;-46
2022/06/11 03:21:07;;;;;;;4.10;1.65;;;;;;;;;;5140195;27;20107;-42
2022/06/11 03:23:33;;;;;;;4.13;1.23;;;;;;;;;;5140269;27;20050;-42
2022/06/11 03:25:59;;;;;;;1.05;0.60;;;;;;;;;;5143102;27;20074;-44
2022/06/11 03:28:26;;;;;;;5.80;1.15;;;;;;;;;;5139360;27;20554;-45
2022/06/11 03:30:52;;;;;;;2.35;1.02;;;;;;;;;;5143135;27;20050;-46
2022/06/11 03:33:18;;;;;;;360.40;63.30;;;;;;;;;;5141094;27;20887;-43
2022/06/11 03:35:44;;;;;;;20.27;3.60;;;;;;;;;;5142286;27;20043;-46
2022/06/11 03:38:10;;;;;;;6.55;2.47;;;;;;;;;;5142531;27;20065;-47
2022/06/11 03:40:35;;;;;;;15.63;1.63;;;;;;;;;;5142388;27;20042;-42
2022/06/11 03:43:01;;;;;;;4.80;2.25;;;;;;;;;;5141567;27;20043;-42
2022/06/11 03:45:27;;;;;;;11.60;2.17;;;;;;;;;;5140033;27;20382;-41
2022/06/11 03:47:52;;;;;;;28.30;6.85;;;;;;;;;;5141987;27;20410;-46
2022/06/11 03:50:20;;;;;;;31.63;5.53;;;;;;;;;;5141559;27;20046;-44
2022/06/11 03:52:45;;;;;;;5.28;1.17;;;;;;;;;;5142068;27;20669;-44
2022/06/11 03:55:10;;;;;;;3.88;2.33;;;;;;;;;;5141649;27;20051;-44
2022/06/11 03:57:36;;;;;;;2.03;1.35;;;;;;;;;;5140922;27;20111;-42
2022/06/11 04:00:04;;;;;;;5.75;2.03;;;;;;;;;;5141303;27;20130;-44
2022/06/11 04:02:29;;;;;;;5.43;1.58;;;;;;;;;;5141004;27;20051;-43
2022/06/11 04:04:55;;;;;;;3.58;1.50;;;;;;;;;;5138966;27;20045;-46
2022/06/11 04:07:20;;;;;;;25.88;4.97;;;;;;;;;;5142550;27;20447;-42
2022/06/11 04:09:46;;;;;;;5.40;1.83;;;;;;;;;;5142425;27;20103;-46
2022/06/11 04:12:15;;;;;;;3.40;1.50;;;;;;;;;;5140137;27;20043;-43
2022/06/11 04:14:41;;;;;;;1.48;0.98;;;;;;;;;;5140040;27;20051;-44
2022/06/11 04:17:10;;;;;;;5.68;2.22;;;;;;;;;;5139136;27;20152;-44
2022/06/11 04:19:38;;;;;;;4.43;1.95;;;;;;;;;;5138671;27;20417;-43
2022/06/11 04:22:04;;;;;;;4.72;2.30;;;;;;;;;;5141684;27;20132;-42
2022/06/11 04:24:29;;;;;;;4.53;0.80;;;;;;;;;;5140607;27;20161;-44
2022/06/11 04:26:56;;;;;;;11.90;2.83;;;;;;;;;;5140264;27;20043;-46
2022/06/11 04:29:23;;;;;;;3.65;2.08;;;;;;;;;;5140867;27;20039;-44
2022/06/11 04:31:49;;;;;;;6.22;2.25;;;;;;;;;;5139605;27;20050;-43
2022/06/11 04:34:15;;;;;;;1.60;1.05;;;;;;;;;;5139483;27;20473;-46
2022/06/11 04:36:41;;;;;;;27.67;6.07;;;;;;;;;;5140275;27;20149;-42
2022/06/11 04:39:08;;;;;;;4.10;1.45;;;;;;;;;;5141367;27;20042;-46
2022/06/11 04:41:33;;;;;;;12.85;1.58;;;;;;;;;;5139779;27;20134;-44
2022/06/11 04:43:58;;;;;;;2.47;1.40;;;;;;;;;;5140163;27;20751;-43
2022/06/11 04:46:24;;;;;;;12.70;2.10;;;;;;;;;;5139868;27;20054;-42
2022/06/11 04:48:50;;;;;;;3.38;1.08;;;;;;;;;;5140236;27;20061;-41
2022/06/11 04:51:15;;;;;;;5.22;1.92;;;;;;;;;;5138519;27;20038;-43
2022/06/11 04:53:42;;;;;;;3.08;2.00;;;;;;;;;;5140704;27;20149;-42
2022/06/11 04:56:07;;;;;;;18.77;3.38;;;;;;;;;;5143263;27;20059;-46
2022/06/11 04:58:33;;;;;;;16.27;1.65;;;;;;;;;;5137961;27;20685;-44
2022/06/11 05:00:58;;;;;;;1.45;0.98;;;;;;;;;;5141442;27;20035;-41
2022/06/11 05:03:24;;;;;;;170.07;25.20;;;;;;;;;;5139507;27;20047;-41
2022/06/11 05:05:49;;;;;;;15.25;4.70;;;;;;;;;;5139952;27;20045;-44
2022/06/11 05:08:15;;;;;;;9.93;2.55;;;;;;;;;;5141564;27;20553;-44
2022/06/11 05:10:40;;;;;;;31.00;6.68;;;;;;;;;;5138993;27;20421;-47
2022/06/11 05:13:07;;;;;;;3.78;2.28;;;;;;;;;;5142128;27;20046;-41
2022/06/11 05:15:34;;;;;;;19.90;4.97;;;;;;;;;;5138365;27;20470;-42
2022/06/11 05:17:59;;;;;;;25.95;6.45;;;;;;;;;;5141785;27;20570;-45
2022/06/11 05:20:25;;;;;;;22.23;2.78;;;;;;;;;;5143185;27;20034;-43
2022/06/11 05:22:50;;;;;;;10.43;4.20;;;;;;;;;;5143474;27;20534;-43
2022/06/11 05:25:16;;;;;;;31.33;2.95;;;;;;;;;;5141014;27;20088;-43
2022/06/11 05:27:43;;;;;;;37.13;7.47;;;;;;;;;;5141180;27;20042;-44
2022/06/11 05:30:15;;;;;;;2.72;2.03;;;;;;;;;;5144633;27;20066;-42
2022/06/11 05:32:41;;;;;;;5.43;1.70;;;;;;;;;;5144700;27;20117;-46
2022/06/11 05:35:07;;;;;;;4.20;1.58;;;;;;;;;;5142362;27;20050;-41
2022/06/11 05:37:33;;;;;;;3.17;1.95;;;;;;;;;;5145357;27;20045;-40
2022/06/11 05:39:58;;;;;;;143.88;14.52;;;;;;;;;;5141663;27;20130;-41
2022/06/11 05:42:24;;;;;;;185.55;27.30;;;;;;;;;;5144546;27;20527;-44
2022/06/11 05:44:50;;;;;;;53.85;5.68;;;;;;;;;;5143360;27;20043;-43
2022/06/11 05:47:18;;;;;;;33.58;6.28;;;;;;;;;;5140787;27;20130;-44
2022/06/11 05:49:45;;;;;;;36.85;6.95;;;;;;;;;;5139041;27;20038;-42
2022/06/11 05:52:13;;;;;;;22.30;3.08;;;;;;;;;;5139946;27;20047;-46
2022/06/11 05:54:39;;;;;;;9.45;1.98;;;;;;;;;;5142534;27;20163;-41
2022/06/11 05:57:06;;;;;;;8.15;2.22;;;;;;;;;;5140155;27;20514;-42
2022/06/11 05:59:34;;;;;;;4.30;1.67;;;;;;;;;;5142581;27;20066;-45
2022/06/11 06:02:00;;;;;;;77.60;10.00;;;;;;;;;;5141355;27;20045;-42
2022/06/11 06:04:25;;;;;;;44.90;4.75;;;;;;;;;;5140915;27;20050;-42
2022/06/11 06:06:50;;;;;;;14.90;2.47;;;;;;;;;;5142571;27;20486;-44
2022/06/11 06:09:16;;;;;;;1.83;0.80;;;;;;;;;;5141558;27;20131;-44
2022/06/11 06:11:41;;;;;;;211.15;39.70;;;;;;;;;;5144673;27;20050;-47
2022/06/11 06:14:07;;;;;;;8.38;2.60;;;;;;;;;;5141420;27;20051;-47
2022/06/11 06:16:32;;;;;;;1.77;1.25;;;;;;;;;;5144194;27;20622;-46
2022/06/11 06:18:59;;;;;;;1.65;1.10;;;;;;;;;;5141692;27;20081;-43
2022/06/11 06:21:25;;;;;;;6.22;1.77;;;;;;;;;;5142517;27;20054;-44
2022/06/11 06:23:51;;;;;;;5.35;1.65;;;;;;;;;;5144895;27;20562;-43
2022/06/11 06:26:17;;;;;;;2.10;1.35;;;;;;;;;;5142439;27;20039;-46
2022/06/11 06:28:42;;;;;;;1.45;0.82;;;;;;;;;;5144058;27;20034;-48
2022/06/11 06:31:08;;;;;;;19.50;4.47;;;;;;;;;;5143374;27;20039;-48
2022/06/11 06:33:33;;;;;;;18.90;2.67;;;;;;;;;;5141718;27;20035;-47
2022/06/11 06:36:00;;;;;;;50.50;7.30;;;;;;;;;;5140070;27;20460;-46
2022/06/11 06:38:25;;;;;;;3.22;1.20;;;;;;;;;;5138457;27;20035;-42
2022/06/11 06:40:51;;;;;;;13.63;2.83;;;;;;;;;;5144539;27;20287;-42
2022/06/11 06:43:17;;;;;;;67.90;10.10;;;;;;;;;;5143634;27;20049;-43
2022/06/11 06:45:42;;;;;;;12.63;3.83;;;;;;;;;;5140220;27;20042;-42
2022/06/11 06:48:07;;;;;;;15.00;3.90;;;;;;;;;;5143121;27;20043;-45
2022/06/11 06:50:33;;;;;;;39.70;7.57;;;;;;;;;;5139323;27;20512;-44
2022/06/11 06:52:58;;;;;;;54.60;23.42;;;;;;;;;;5143015;27;20039;-45
2022/06/11 06:55:24;;;;;;;9.00;6.57;;;;;;;;;;5139953;27;20039;-45
2022/06/11 06:57:50;;;;;;;18.08;2.58;;;;;;;;;;5139947;27;20058;-44
2022/06/11 07:00:17;;;;;;;4.32;1.77;;;;;;;;;;5141809;27;20468;-42
2022/06/11 07:02:42;;;;;;;22.23;5.95;;;;;;;;;;5141080;27;20047;-43
2022/06/11 07:05:09;;;;;;;11.27;3.22;;;;;;;;;;5141407;27;20041;-43
2022/06/11 07:07:35;;;;;;;228.48;49.72;;;;;;;;;;5140766;27;20062;-45
2022/06/11 07:10:00;;;;;;;71.82;17.33;;;;;;;;;;5142069;27;20046;-42
2022/06/11 07:12:26;;;;;;;229.93;36.88;;;;;;;;;;5139766;27;20035;-46
2022/06/11 07:14:51;;;;;;;43.78;8.50;;;;;;;;;;5138979;27;20094;-47
2022/06/11 07:17:17;;;;;;;26.80;8.93;;;;;;;;;;5140330;27;20046;-43
2022/06/11 07:19:45;;;;;;;7.47;4.32;;;;;;;;;;5135846;27;20057;-46
2022/06/11 07:22:14;;;;;;;4.25;2.22;;;;;;;;;;5139920;27;20454;-44
2022/06/11 07:24:41;;;;;;;22.75;3.63;;;;;;;;;;5142978;27;20050;-44
2022/06/11 07:27:09;;;;;;;41.80;7.30;;;;;;;;;;5141552;27;20057;-42
2022/06/11 07:29:45;;;;;;;16.70;5.95;;;;;;;;;;5142730;27;20134;-48
2022/06/11 07:32:13;;;;;;;16.73;2.90;;;;;;;;;;5138469;27;20134;-45
2022/06/11 07:34:39;;;;;;;270.73;44.95;;;;;;;;;;5142099;27;20513;-42
2022/06/11 07:37:04;;;;;;;12.77;2.05;;;;;;;;;;5139077;27;20044;-45
2022/06/11 07:39:30;;;;;;;4.05;1.63;;;;;;;;;;5134068;27;20037;-43
2022/06/11 07:41:55;;;;;;;374.80;75.22;;;;;;;;;;5138013;27;20108;-43
2022/06/11 07:44:20;;;;;;;47.33;7.15;;;;;;;;;;5121446;27;20490;-43
2022/06/11 07:46:46;;;;;;;123.50;17.17;;;;;;;;;;5135503;27;20656;-44
2022/06/11 07:49:13;;;;;;;62.03;13.30;;;;;;;;;;5141326;27;20121;-47
2022/06/11 07:51:38;;;;;;;352.58;55.55;;;;;;;;;;5138666;27;20074;-45
2022/06/11 07:54:03;;;;;;;22.58;4.97;;;;;;;;;;5138624;27;20498;-40
2022/06/11 07:56:29;;;;;;;340.38;52.50;;;;;;;;;;5139233;27;20105;-40
2022/06/11 07:58:54;;;;;;;57.35;8.20;;;;;;;;;;5138800;27;20497;-41
2022/06/11 08:01:20;;;;;;;42.38;9.50;;;;;;;;;;5139641;27;20198;-43
2022/06/11 08:03:45;;;;;;;6.53;1.85;;;;;;;;;;5141000;27;20062;-44
2022/06/11 08:06:11;;;;;;;175.73;27.10;;;;;;;;;;5138410;27;20049;-41
2022/06/11 08:08:36;;;;;;;12.18;3.63;;;;;;;;;;5138337;27;20161;-44
2022/06/11 08:11:03;;;;;;;30.63;6.80;;;;;;;;;;5139504;27;20038;-44
2022/06/11 08:13:28;;;;;;;8.60;1.85;;;;;;;;;;5138196;27;20073;-41
2022/06/11 08:15:54;;;;;;;2.28;1.50;;;;;;;;;;5136129;27;20506;-42
2022/06/11 08:18:21;;;;;;;31.00;7.07;;;;;;;;;;5138517;27;20051;-45
2022/06/11 08:20:46;;;;;;;7.50;2.83;;;;;;;;;;5139134;27;20399;-42
2022/06/11 08:23:12;;;;;;;45.95;7.15;;;;;;;;;;5139589;27;20042;-44
2022/06/11 08:25:37;;;;;;;3.60;1.92;;;;;;;;;;5139607;27;20508;-41
2022/06/11 08:28:04;;;;;;;4.50;1.05;;;;;;;;;;5138788;27;20588;-42
2022/06/11 08:30:30;;;;;;;4.85;2.25;;;;;;;;;;5139635;27;20043;-45
2022/06/11 08:32:55;;;;;;;123.40;13.05;;;;;;;;;;5138380;27;20509;-42
2022/06/11 08:35:24;;;;;;;2.08;1.27;;;;;;;;;;5140026;27;20054;-42
2022/06/11 08:37:49;;;;;;;13.13;3.33;;;;;;;;;;5129146;27;20673;-43
2022/06/11 08:40:32;;;;;;;6.28;1.88;;;;;;;;;;5140208;27;20055;-44
2022/06/11 08:42:59;;;;;;;659.45;122.50;;;;;;;;;;5138901;27;20030;-46
2022/06/11 08:45:32;;;;;;;41.40;9.60;;;;;;;;;;5140808;27;20047;-49
2022/06/11 08:48:00;;;;;;;3.92;1.42;;;;;;;;;;5138226;27;20051;-45
2022/06/11 08:50:34;;;;;;;12.32;2.53;;;;;;;;;;5141146;27;20043;-42
2022/06/11 08:53:01;;;;;;;9.10;1.60;;;;;;;;;;5137438;27;20039;-45
2022/06/11 08:55:30;;;;;;;200.32;26.67;;;;;;;;;;5137694;27;20130;-42
2022/06/11 08:58:07;;;;;;;9.52;2.17;;;;;;;;;;5142411;27;20066;-43
2022/06/11 09:00:42;;;;;;;7.45;1.52;;;;;;;;;;5140241;27;20042;-41
2022/06/11 09:03:12;;;;;;;78.63;17.15;;;;;;;;;;5138860;27;20071;-44
2022/06/11 09:05:53;;;;;;;79.85;12.55;;;;;;;;;;5138313;27;20049;-46
2022/06/11 09:08:18;;;;;;;73.65;13.75;;;;;;;;;;5141389;27;20042;-43
2022/06/11 09:11:16;;;;;;;5.53;3.10;;;;;;;;;;5137279;27;20054;-42
2022/06/11 09:13:53;;;;;;;116.13;16.85;;;;;;;;;;5084804;27;20141;-42
2022/06/11 09:16:19;;;;;;;7.80;2.20;;;;;;;;;;5136202;27;20066;-42
2022/06/11 09:18:51;;;;;;;2.70;1.33;;;;;;;;;;5137481;27;20066;-44
2022/06/11 09:21:28;;;;;;;9.85;2.05;;;;;;;;;;5138042;27;20051;-43
2022/06/11 09:23:58;;;;;;;66.13;14.10;;;;;;;;;;5145314;27;20127;-42
2022/06/11 09:26:26;;;;;;;39.95;7.57;;;;;;;;;;5138360;27;20031;-44
2022/06/11 09:29:03;;;;;;;10.30;3.33;;;;;;;;;;5140391;27;20081;-44
2022/06/11 09:31:39;;;;;;;1.48;1.02;;;;;;;;;;5138202;27;20045;-42
2022/06/11 09:34:10;;;;;;;11.63;1.40;;;;;;;;;;5141237;27;20506;-44
2022/06/11 09:36:41;;;;;;;4.82;1.00;;;;;;;;;;5139093;27;20045;-43
2022/06/11 09:39:25;;;;;;;18.60;3.33;;;;;;;;;;5142052;27;20041;-43
2022/06/11 09:41:55;;;;;;;57.88;5.90;;;;;;;;;;5137573;27;20042;-42
2022/06/11 09:44:56;;;;;;;3.85;2.08;;;;;;;;;;5138904;27;21468;-44
2022/06/11 09:47:32;;;;;;;3.33;1.58;;;;;;;;;;5028815;28;20111;-42
2022/06/11 09:50:04;;;;;;;5.28;1.52;;;;;;;;;;5124586;27;20130;-43
2022/06/11 09:52:48;;;;;;;2.10;1.45;;;;;;;;;;5136663;27;20043;-44
2022/06/11 09:55:29;;;;;;;3.88;0.82;;;;;;;;;;5141032;27;20078;-45
2022/06/11 09:58:06;;;;;;;14.82;3.40;;;;;;;;;;5137397;27;20039;-44
2022/06/11 10:00:34;;;;;;;3.30;1.45;;;;;;;;;;5137543;27;20693;-41
2022/06/11 10:03:13;;;;;;;2.33;1.08;;;;;;;;;;5142952;27;20039;-48
2022/06/11 10:05:42;;;;;;;13.90;1.58;;;;;;;;;;5143633;27;20530;-41
2022/06/11 10:08:30;;;;;;;3.47;1.77;;;;;;;;;;5142412;27;20135;-42
2022/06/11 10:10:56;;;;;;;7.20;2.05;;;;;;;;;;5142775;27;20102;-43
2022/06/11 10:13:40;;;;;;;51.30;5.38;;;;;;;;;;5139186;27;20150;-41
2022/06/11 10:16:08;;;;;;;8.13;2.75;;;;;;;;;;5145176;27;20527;-47
2022/06/11 10:18:36;;;;;;;189.27;24.55;;;;;;;;;;5143577;27;20147;-43
2022/06/11 10:21:07;;;;;;;9.50;1.58;;;;;;;;;;5141744;27;20493;-43
2022/06/11 10:23:40;;;;;;;12.27;3.35;;;;;;;;;;5141695;27;20042;-41
2022/06/11 10:26:11;;;;;;;7.10;1.48;;;;;;;;;;5145359;27;20043;-48
2022/06/11 10:28:55;;;;;;;9.02;1.50;;;;;;;;;;5141988;27;20750;-44
2022/06/11 10:31:26;;;;;;;9.18;1.52;;;;;;;;;;5143493;27;20043;-46
2022/06/11 10:33:51;;;;;;;223.18;34.78;;;;;;;;;;5140332;27;20118;-45
2022/06/11 10:36:19;;;;;;;1.90;0.70;;;;;;;;;;5141807;27;20477;-42
2022/06/11 10:38:45;;;;;;;9.25;1.98;;;;;;;;;;5144250;27;20490;-43
2022/06/11 10:41:14;;;;;;;196.98;28.95;;;;;;;;;;5142054;27;20047;-44
2022/06/11 10:43:51;;;;;;;43.28;5.93;;;;;;;;;;5135964;27;20470;-43
2022/06/11 10:46:17;;;;;;;36.65;3.72;;;;;;;;;;5139726;27;20082;-44
2022/06/11 10:48:42;;;;;;;36.35;3.08;;;;;;;;;;5120599;27;20066;-44
2022/06/11 10:51:14;;;;;;;2.90;1.17;;;;;;;;;;5137613;27;20039;-45
2022/06/11 10:53:45;;;;;;;5.18;1.33;;;;;;;;;;5135087;27;20043;-44
2022/06/11 10:56:14;;;;;;;65.38;12.93;;;;;;;;;;5141492;27;20054;-41
2022/06/11 10:58:42;;;;;;;15.38;2.13;;;;;;;;;;5139547;27;20134;-42
2022/06/11 11:01:14;;;;;;;29.63;3.10;;;;;;;;;;5133922;27;20043;-40
2022/06/11 11:03:43;;;;;;;2.63;1.13;;;;;;;;;;5138881;27;20035;-47
2022/06/11 11:06:15;;;;;;;12.90;2.22;;;;;;;;;;5138356;27;20046;-41
2022/06/11 11:08:50;;;;;;;2.70;1.35;;;;;;;;;;5139391;27;20074;-44
2022/06/11 11:11:16;;;;;;;21.30;2.35;;;;;;;;;;5138263;27;20545;-46
2022/06/11 11:13:42;;;;;;;1.77;1.05;;;;;;;;;;5137795;27;20077;-43
2022/06/11 11:16:13;;;;;;;5.55;1.70;;;;;;;;;;5142691;27;20138;-49
2022/06/11 11:18:59;;;;;;;10.35;1.02;;;;;;;;;;5138700;27;20469;-55
2022/06/11 11:21:32;;;;;;;7.72;2.03;;;;;;;;;;5138141;27;20035;-56
2022/06/11 11:24:02;;;;;;;10.20;5.32;;;;;;;;;;5136270;27;20510;-56
2022/06/11 11:26:27;;;;;;;28.42;14.88;;;;;;;;;;5138798;27;20095;-51
2022/06/11 11:28:59;;;;;;;13.75;12.63;;;;;;;;;;5137943;27;20046;-53
2022/06/11 11:31:30;;;;;;;22.92;20.80;;;;;;;;;;5141379;27;20054;-54
2022/06/11 11:33:58;;;;;;;37.13;32.92;;;;;;;;;;5137685;27;20038;-51
2022/06/11 11:36:25;;;;;;;42.40;39.03;;;;;;;;;;5139036;27;20046;-51
2022/06/11 11:39:11;;;;;;;50.88;46.28;;;;;;;;;;5136877;27;20095;-49
2022/06/11 11:41:37;;;;;;;30.73;28.13;;;;;;;;;;5139430;27;20092;-50
2022/06/11 11:44:02;;;;;;;58.90;37.80;;;;;;;;;;5136651;27;20050;-53
2022/06/11 11:46:32;;;;;;;60.20;54.25;;;;;;;;;;5135188;27;20053;-51
2022/06/11 11:48:59;;;;;;;110.55;45.63;;;;;;;;;;5135173;27;20551;-56
2022/06/11 11:51:27;;;;;;;67.38;39.13;;;;;;;;;;5137888;27;20050;-55
2022/06/11 11:54:01;;;;;;;54.88;48.83;;;;;;;;;;5136214;27;20049;-54
2022/06/11 11:56:26;;;;;;;26.40;23.58;;;;;;;;;;5131477;27;20042;-51
2022/06/11 11:58:54;;;;;;;33.72;30.40;;;;;;;;;;5131310;27;20034;-52
2022/06/11 12:01:21;;;;;;;36.80;33.22;;;;;;;;;;5133185;27;20054;-50
2022/06/11 12:03:51;;;;;;;59.15;38.90;;;;;;;;;;5133332;27;20043;-50
2022/06/11 12:06:16;;;;;;;;;;;;;;;;;;5135070;27;20046;-48
2022/06/11 12:08:47;;;;;;;23.52;21.05;;;;;;;;;;5139511;27;20009;-51
2022/06/11 12:11:28;;;;;;;87.97;29.00;;;;;;;;;;5137687;27;20062;-52
2022/06/11 12:13:53;;;;;;;;;;;;;;;;;;5134916;27;20039;-52
2022/06/11 12:16:21;;;;;;;24.67;15.80;;;;;;;;;;5137609;27;19914;-53
2022/06/11 12:18:50;;;;;;;105.22;33.90;;;;;;;;;;5136434;27;20487;-52
2022/06/11 12:21:23;;;;;;;24.98;22.85;;;;;;;;;;5137547;27;20040;-50
2022/06/11 12:24:00;;;;;;;15.15;13.75;;;;;;;;;;5134786;27;20061;-52
2022/06/11 12:26:32;;;;;;;22.10;17.13;;;;;;;;;;5139586;27;20628;-54
2022/06/11 12:29:00;;;;;;;41.85;14.25;;;;;;;;;;5141044;27;20066;-54
2022/06/11 12:31:28;;;;;;;108.20;17.35;;;;;;;;;;5136215;27;20039;-49
2022/06/11 12:33:55;;;;;;;18.42;16.92;;;;;;;;;;5137233;27;20128;-51
2022/06/11 12:36:39;;;;;;;13.77;12.45;;;;;;;;;;5139631;27;20057;-50
2022/06/11 12:39:13;;;;;;;8.82;7.55;;;;;;;;;;5141676;27;20030;-53
2022/06/11 12:41:54;;;;;;;16.10;14.57;;;;;;;;;;5138783;27;20045;-53
2022/06/11 12:44:37;;;;;;;42.13;6.78;;;;;;;;;;5139553;27;20061;-52
2022/06/11 12:47:06;;;;;;;14.48;13.20;;;;;;;;;;5141171;27;20443;-50
2022/06/11 12:49:36;;;;;;;8.45;7.65;;;;;;;;;;5139376;27;20467;-51
2022/06/11 12:52:13;;;;;;;14.45;8.25;;;;;;;;;;5137178;27;20039;-51
2022/06/11 12:54:42;;;;;;;11.75;7.03;;;;;;;;;;5140155;27;20058;-51
2022/06/11 12:57:13;;;;;;;10.00;6.97;;;;;;;;;;5135331;27;20058;-52
2022/06/11 12:59:38;;;;;;;24.05;11.38;;;;;;;;;;5137331;27;20039;-53
2022/06/11 13:02:07;;;;;;;14.38;5.03;;;;;;;;;;5136686;27;20091;-51
2022/06/11 13:04:38;;;;;;;8.38;7.43;;;;;;;;;;5135838;27;20107;-54
2022/06/11 13:07:22;;;;;;;8.52;7.55;;;;;;;;;;5134384;27;20046;-53
2022/06/11 13:09:50;;;;;;;21.17;4.47;;;;;;;;;;5135779;27;20447;-51
2022/06/11 13:12:16;;;;;;;6.63;4.93;;;;;;;;;;5135951;27;20053;-55
2022/06/11 13:15:02;;;;;;;7.07;4.75;;;;;;;;;;5135002;27;20074;-53
2022/06/11 13:17:27;;;;;;;15.77;7.30;;;;;;;;;;5137598;27;20098;-54
2022/06/11 13:19:53;;;;;;;7.72;4.82;;;;;;;;;;5134861;27;20050;-52
2022/06/11 13:22:43;;;;;;;8.65;3.83;;;;;;;;;;5137069;27;20053;-52
2022/06/11 13:25:21;;;;;;;6.45;3.22;;;;;;;;;;5133649;27;20038;-51
2022/06/11 13:28:11;;;;;;;6.07;3.47;;;;;;;;;;5132729;27;20068;-53
2022/06/11 13:30:59;;;;;;;7.47;2.22;;;;;;;;;;5135133;27;20043;-53
2022/06/11 13:33:24;;;;;;;4.15;3.08;;;;;;;;;;5133846;27;20407;-47
2022/06/11 13:36:09;;;;;;;17.05;4.65;;;;;;;;;;5129091;27;20084;-54
2022/06/11 13:38:58;;;;;;;4.85;4.43;;;;;;;;;;5140764;27;20050;-52
2022/06/11 13:41:39;;;;;;;5.50;4.15;;;;;;;;;;5104105;27;20421;-47
2022/06/11 13:44:11;;;;;;;2.88;2.53;;;;;;;;;;5137320;27;20043;-50
2022/06/11 13:46:56;;;;;;;7.85;3.25;;;;;;;;;;5141191;27;20421;-52
2022/06/11 13:49:37;;;;;;;29.20;7.05;;;;;;;;;;5140378;27;20548;-49
2022/06/11 13:52:05;;;;;;;9.00;2.80;;;;;;;;;;5134626;27;20077;-50
2022/06/11 13:57:44;;;;;;;23.65;3.08;;;;;;;;;;5133901;27;20527;-55
2022/06/11 14:00:28;;;;;;;17.58;4.60;;;;;;;;;;5132137;27;20046;-52
2022/06/11 14:03:08;;;;;;;44.83;6.75;;;;;;;;;;5137959;27;20039;-50
2022/06/11 14:05:34;;;;;;;;;;;;;;;;;;5141131;27;20069;-50
2022/06/11 14:07:59;;;;;;;1.92;1.20;;;;;;;;;;5136684;27;19977;-48
2022/06/11 14:10:30;;;;;;;14.80;4.45;;;;;;;;;;5138531;27;20051;-55
2022/06/11 14:12:56;;;;;;;4.22;1.63;;;;;;;;;;5136649;27;20077;-56
2022/06/11 14:15:29;;;;;;;3.78;1.33;;;;;;;;;;5135046;27;20501;-53
2022/06/11 14:18:00;;;;;;;2.65;1.35;;;;;;;;;;5130969;27;20051;-55
2022/06/11 14:20:33;;;;;;;5.20;3.30;;;;;;;;;;5134614;27;20055;-55
2022/06/11 14:22:58;;;;;;;10.35;2.00;;;;;;;;;;5138340;27;20505;-51
2022/06/11 14:25:34;;;;;;;1192.43;261.33;;;;;;;;;;5133957;27;20101;-52
2022/06/11 14:28:15;;;;;;;2.03;1.10;;;;;;;;;;5137249;27;20077;-54
2022/06/11 14:30:40;;;;;;;;;;;;;;;;;;5135242;27;20042;-51
2022/06/11 14:33:12;;;;;;;4.53;1.83;;;;;;;;;;5135303;27;19922;-54
2022/06/11 14:35:52;;;;;;;5.40;1.05;;;;;;;;;;5137922;27;20046;-55
2022/06/11 14:38:20;;;;;;;7.63;1.75;;;;;;;;;;5136279;27;20149;-55
2022/06/11 14:40:46;;;;;;;7.07;1.90;;;;;;;;;;5132862;27;20046;-55
2022/06/11 14:43:13;;;;;;;11.63;1.75;;;;;;;;;;5138086;27;20039;-55
2022/06/11 14:45:44;;;;;;;1.75;0.90;;;;;;;;;;5134241;27;20035;-56
2022/06/11 14:48:09;;;;;;;8.15;2.25;;;;;;;;;;5137769;27;20139;-54
2022/06/11 14:50:46;;;;;;;28.73;4.22;;;;;;;;;;5136804;27;20512;-55